createdAt,value
2022-10-21T00:00:19.320Z,100771.00
2022-10-21T00:02:46.600Z,100762.00
2022-10-21T00:05:13.981Z,100770.00
2022-10-21T00:07:40.904Z,100760.00
2022-10-21T00:10:08.307Z,100761.00
2022-10-21T00:12:36.099Z,100762.00
2022-10-21T00:15:10.796Z,100768.00
2022-10-21T00:17:43.148Z,100758.00
2022-10-21T00:20:11.907Z,100765.00
2022-10-21T00:22:39.439Z,100754.00
2022-10-21T00:25:06.768Z,100747.00
2022-10-21T00:27:33.679Z,100751.00
2022-10-21T00:30:00.497Z,100735.00
2022-10-21T00:32:27.368Z,100738.00
2022-10-21T00:34:54.194Z,100746.00
2022-10-21T00:37:21.010Z,100747.00
2022-10-21T00:39:52.233Z,100746.00
2022-10-21T00:42:21.433Z,100751.00
2022-10-21T00:45:06.582Z,100741.00
2022-10-21T00:47:56.079Z,100732.00
2022-10-21T00:50:33.270Z,100723.00
2022-10-21T00:53:01.867Z,100731.00
2022-10-21T00:55:32.689Z,100726.00
2022-10-21T00:58:00.151Z,100716.00
2022-10-21T01:00:27.149Z,100711.00
2022-10-21T01:02:54.187Z,100726.00
2022-10-21T01:05:21.633Z,100723.00
2022-10-21T01:07:49.917Z,100713.00
2022-10-21T01:10:17.817Z,100704.00
2022-10-21T01:13:06.436Z,100716.00
2022-10-21T01:15:37.125Z,100710.00
2022-10-21T01:18:13.924Z,100704.00
2022-10-21T01:21:02.382Z,100695.00
2022-10-21T01:23:35.274Z,100688.00
2022-10-21T01:26:23.708Z,100684.00
2022-10-21T01:29:11.279Z,100679.00
2022-10-21T01:31:46.606Z,100681.00
2022-10-21T01:34:32.422Z,100665.00
2022-10-21T01:37:08.704Z,100659.00
2022-10-21T01:39:44.420Z,100666.00
2022-10-21T01:42:14.128Z,100654.00
2022-10-21T01:44:43.643Z,100658.00
2022-10-21T01:47:22.650Z,100670.00
2022-10-21T01:50:13.484Z,100669.00
2022-10-21T01:52:42.447Z,100669.00
2022-10-21T01:55:13.902Z,100659.00
2022-10-21T01:57:44.023Z,100652.00
2022-10-21T02:00:11.116Z,100655.00
2022-10-21T02:02:42.708Z,100653.00
2022-10-21T02:05:15.947Z,100644.00
2022-10-21T02:07:42.997Z,100643.00
2022-10-21T02:10:10.325Z,100642.00
2022-10-21T02:12:38.876Z,100630.00
2022-10-21T02:15:09.038Z,100625.00
2022-10-21T02:17:38.253Z,100617.00
2022-10-21T02:20:09.161Z,100618.00
2022-10-21T02:22:37.391Z,100597.00
2022-10-21T02:25:13.290Z,100596.00
2022-10-21T02:27:40.150Z,100611.00
2022-10-21T02:30:07.622Z,100617.00
2022-10-21T02:32:39.192Z,100619.00
2022-10-21T02:35:34.218Z,100627.00
2022-10-21T02:38:14.681Z,100613.00
2022-10-21T02:40:50.543Z,100607.00
2022-10-21T02:43:33.273Z,100610.00
2022-10-21T02:46:05.335Z,100607.00
2022-10-21T02:48:36.364Z,100610.00
2022-10-21T02:51:05.105Z,100616.00
2022-10-21T02:53:32.446Z,100605.00
2022-10-21T02:55:59.338Z,100607.00
2022-10-21T02:58:26.311Z,100596.00
2022-10-21T03:00:53.211Z,100600.00
2022-10-21T03:03:20.103Z,100599.00
2022-10-21T03:05:47.118Z,100590.00
2022-10-21T03:08:14.044Z,100595.00
2022-10-21T03:10:40.951Z,100600.00
2022-10-21T03:13:07.774Z,100601.00
2022-10-21T03:15:34.591Z,100596.00
2022-10-21T03:18:01.403Z,100603.00
2022-10-21T03:20:28.266Z,100602.00
2022-10-21T03:22:55.140Z,100602.00
2022-10-21T03:25:22.062Z,100590.00
2022-10-21T03:27:52.047Z,100594.00
2022-10-21T03:30:19.006Z,100595.00
2022-10-21T03:32:45.904Z,100582.00
2022-10-21T03:35:12.775Z,100588.00
2022-10-21T03:37:39.615Z,100566.00
2022-10-21T03:40:11.440Z,100579.00
2022-10-21T03:42:39.763Z,100583.00
2022-10-21T03:45:07.227Z,100581.00
2022-10-21T03:47:34.010Z,100574.00
2022-10-21T03:50:00.818Z,100568.00
2022-10-21T03:52:27.723Z,100572.00
2022-10-21T03:54:54.517Z,100570.00
2022-10-21T03:57:21.434Z,100560.00
2022-10-21T03:59:48.256Z,100562.00
2022-10-21T04:02:15.111Z,100554.00
2022-10-21T04:04:41.865Z,100557.00
2022-10-21T04:07:08.664Z,100560.00
2022-10-21T04:09:35.477Z,100550.00
2022-10-21T04:12:02.283Z,100552.00
2022-10-21T04:14:29.138Z,100547.00
2022-10-21T04:17:06.615Z,100549.00
2022-10-21T04:19:34.136Z,100556.00
2022-10-21T04:22:00.939Z,100560.00
2022-10-21T04:24:27.857Z,100544.00
2022-10-21T04:26:54.818Z,100549.00
2022-10-21T04:32:11.096Z,100545.00
2022-10-21T04:34:38.052Z,100526.00
2022-10-21T04:37:05.401Z,100515.00
2022-10-21T04:39:32.819Z,100518.00
2022-10-21T04:41:59.723Z,100516.00
2022-10-21T04:44:26.578Z,100505.00
2022-10-21T04:46:53.575Z,100505.00
2022-10-21T04:49:20.441Z,100503.00
2022-10-21T04:51:47.362Z,100498.00
2022-10-21T04:54:14.231Z,100488.00
2022-10-21T04:56:41.825Z,100503.00
2022-10-21T04:59:08.795Z,100481.00
2022-10-21T05:01:35.711Z,100488.00
2022-10-21T05:04:02.522Z,100488.00
2022-10-21T05:06:29.420Z,100487.00
2022-10-21T05:08:56.299Z,100487.00
2022-10-21T05:11:23.293Z,100491.00
2022-10-21T05:13:50.129Z,100485.00
2022-10-21T05:16:17.028Z,100493.00
2022-10-21T05:18:43.921Z,100501.00
2022-10-21T05:21:10.752Z,100498.00
2022-10-21T05:23:37.560Z,100493.00
2022-10-21T05:26:04.480Z,100493.00
2022-10-21T05:28:31.266Z,100492.00
2022-10-21T05:30:58.559Z,100486.00
2022-10-21T05:33:25.565Z,100486.00
2022-10-21T05:36:05.158Z,100489.00
2022-10-21T05:38:31.976Z,100494.00
2022-10-21T05:40:59.208Z,100492.00
2022-10-21T05:43:27.909Z,100486.00
2022-10-21T05:45:54.810Z,100498.00
2022-10-21T05:48:21.709Z,100486.00
2022-10-21T05:50:53.221Z,100498.00
2022-10-21T05:53:20.826Z,100492.00
2022-10-21T05:55:58.597Z,100493.00
2022-10-21T05:58:26.109Z,100487.00
2022-10-21T06:00:56.235Z,100484.00
2022-10-21T06:03:24.612Z,100486.00
2022-10-21T06:05:51.749Z,100486.00
2022-10-21T06:08:18.675Z,100474.00
2022-10-21T06:10:45.453Z,100476.00
2022-10-21T06:13:12.526Z,100489.00
2022-10-21T06:15:39.298Z,100482.00
2022-10-21T06:18:06.213Z,100500.00
2022-10-21T06:20:33.490Z,100492.00
2022-10-21T06:23:00.774Z,100495.00
2022-10-21T06:25:27.817Z,100491.00
2022-10-21T06:27:54.713Z,100494.00
2022-10-21T06:30:22.999Z,100491.00
2022-10-21T06:32:50.094Z,100487.00
2022-10-21T06:35:17.020Z,100491.00
2022-10-21T06:37:43.796Z,100500.00
2022-10-21T06:40:10.969Z,100496.00
2022-10-21T06:42:37.839Z,100491.00
2022-10-21T06:45:04.971Z,100495.00
2022-10-21T06:47:31.818Z,100488.00
2022-10-21T06:50:02.993Z,100502.00
2022-10-21T06:52:31.380Z,100487.00
2022-10-21T06:54:58.131Z,100489.00
2022-10-21T06:57:25.016Z,100493.00
2022-10-21T06:59:51.803Z,100493.00
2022-10-21T07:02:18.708Z,100497.00
2022-10-21T07:04:49.021Z,100495.00
2022-10-21T07:07:16.724Z,100486.00
2022-10-21T07:09:43.515Z,100494.00
2022-10-21T07:12:10.881Z,100497.00
2022-10-21T07:14:37.981Z,100489.00
2022-10-21T07:17:04.977Z,100493.00
2022-10-21T07:19:32.883Z,100480.00
2022-10-21T07:22:00.034Z,100482.00
2022-10-21T07:24:27.009Z,100481.00
2022-10-21T07:26:53.863Z,100474.00
2022-10-21T07:29:20.953Z,100467.00
2022-10-21T07:31:48.000Z,100471.00
2022-10-21T07:34:15.167Z,100476.00
2022-10-21T07:36:44.986Z,100480.00
2022-10-21T07:39:22.924Z,100480.00
2022-10-21T07:41:54.550Z,100478.00
2022-10-21T07:44:23.007Z,100471.00
2022-10-21T07:46:54.093Z,100481.00
2022-10-21T07:49:22.032Z,100489.00
2022-10-21T07:51:50.548Z,100495.00
2022-10-21T07:54:19.074Z,100496.00
2022-10-21T07:56:48.835Z,100497.00
2022-10-21T07:59:17.600Z,100489.00
2022-10-21T08:04:22.388Z,100480.00
2022-10-21T08:06:49.749Z,100484.00
2022-10-21T08:09:17.449Z,100483.00
2022-10-21T08:11:44.762Z,100494.00
2022-10-21T08:14:19.644Z,100495.00
2022-10-21T08:16:50.026Z,100497.00
2022-10-21T08:19:21.747Z,100487.00
2022-10-21T08:21:48.529Z,100496.00
2022-10-21T08:24:15.851Z,100493.00
2022-10-21T08:26:46.344Z,100479.00
2022-10-21T08:29:13.220Z,100478.00
2022-10-21T08:31:42.484Z,100470.00
2022-10-21T08:34:17.678Z,100466.00
2022-10-21T08:36:44.716Z,100469.00
2022-10-21T08:39:14.527Z,100463.00
2022-10-21T08:41:55.925Z,100452.00
2022-10-21T08:44:43.946Z,100457.00
2022-10-21T08:47:46.500Z,100446.00
2022-10-21T08:50:24.856Z,100457.00
2022-10-21T08:53:01.756Z,100488.00
2022-10-21T08:55:42.038Z,100484.00
2022-10-21T08:58:18.813Z,100495.00
2022-10-21T09:00:54.627Z,100482.00
2022-10-21T09:03:38.877Z,100484.00
2022-10-21T09:06:11.931Z,100469.00
2022-10-21T09:08:52.572Z,100476.00
2022-10-21T09:11:54.206Z,100470.00
2022-10-21T09:14:56.764Z,100473.00
2022-10-21T09:18:00.376Z,100474.00
2022-10-21T09:20:55.895Z,100481.00
2022-10-21T09:23:45.089Z,100487.00
2022-10-21T09:26:31.374Z,100477.00
2022-10-21T09:29:00.899Z,100474.00
2022-10-21T09:31:28.515Z,100469.00
2022-10-21T09:33:59.438Z,100473.00
2022-10-21T09:36:33.665Z,100465.00
2022-10-21T09:39:04.247Z,100466.00
2022-10-21T09:41:36.705Z,100469.00
2022-10-21T09:44:03.655Z,100447.00
2022-10-21T09:46:30.692Z,100455.00
2022-10-21T09:49:29.240Z,100451.00
2022-10-21T09:51:45.521Z,100476.00
2022-10-21T09:54:19.942Z,100472.00
2022-10-21T09:56:49.673Z,100477.00
2022-10-21T09:59:19.486Z,100476.00
2022-10-21T10:01:46.686Z,100465.00
2022-10-21T10:04:33.483Z,100466.00
2022-10-21T10:07:02.169Z,100464.00
2022-10-21T10:09:34.675Z,100467.00
2022-10-21T10:12:05.577Z,100470.00
2022-10-21T10:14:48.305Z,100471.00
2022-10-21T10:17:29.207Z,100466.00
2022-10-21T10:20:07.144Z,100460.00
2022-10-21T10:22:33.937Z,100465.00
2022-10-21T10:25:31.831Z,100460.00
2022-10-21T10:27:59.851Z,100461.00
2022-10-21T10:30:45.767Z,100455.00
2022-10-21T10:33:29.782Z,100455.00
2022-10-21T10:36:05.365Z,100451.00
2022-10-21T10:38:38.934Z,100454.00
2022-10-21T10:41:14.320Z,100442.00
2022-10-21T10:43:53.281Z,100449.00
2022-10-21T10:46:30.514Z,100462.00
2022-10-21T10:49:15.474Z,100463.00
2022-10-21T10:51:45.596Z,100450.00
2022-10-21T10:54:21.854Z,100447.00
2022-10-21T10:56:57.809Z,100451.00
2022-10-21T11:00:03.793Z,100436.00
2022-10-21T11:02:49.258Z,100429.00
2022-10-21T11:05:46.529Z,100425.00
2022-10-21T11:08:39.428Z,100427.00
2022-10-21T11:11:10.919Z,100429.00
2022-10-21T11:13:42.114Z,100447.00
2022-10-21T11:16:26.238Z,100442.00
2022-10-21T11:19:11.188Z,100436.00
2022-10-21T11:21:54.330Z,100441.00
2022-10-21T11:24:45.910Z,100424.00
2022-10-21T11:27:31.469Z,100422.00
2022-10-21T11:30:20.338Z,100419.00
2022-10-21T11:33:13.617Z,100435.00
2022-10-21T11:35:58.130Z,100439.00
2022-10-21T11:38:59.042Z,100446.00
2022-10-21T11:41:28.397Z,100437.00
2022-10-21T11:44:01.358Z,100420.00
2022-10-21T11:46:57.768Z,100421.00
2022-10-21T11:49:54.122Z,100419.00
2022-10-21T11:52:21.108Z,100424.00
2022-10-21T11:55:10.872Z,100424.00
2022-10-21T11:57:58.163Z,100407.00
2022-10-21T12:00:26.937Z,100420.00
2022-10-21T12:03:31.299Z,100417.00
2022-10-21T12:06:03.614Z,100411.00
2022-10-21T12:08:45.187Z,100407.00
2022-10-21T12:11:17.125Z,100422.00
2022-10-21T12:13:57.885Z,100420.00
2022-10-21T12:16:28.016Z,100412.00
2022-10-21T12:18:57.420Z,100409.00
2022-10-21T12:21:27.200Z,100405.00
2022-10-21T12:24:23.182Z,100406.00
2022-10-21T12:27:15.770Z,100412.00
2022-10-21T12:30:05.035Z,100408.00
2022-10-21T12:32:44.620Z,100400.00
2022-10-21T12:35:50.507Z,100398.00
2022-10-21T12:38:43.474Z,100401.00
2022-10-21T12:41:25.013Z,100402.00
2022-10-21T12:44:02.815Z,100410.00
2022-10-21T12:46:36.184Z,100410.00
2022-10-21T12:49:19.026Z,100400.00
2022-10-21T12:51:52.467Z,100402.00
2022-10-21T12:54:28.067Z,100395.00
2022-10-21T12:57:03.424Z,100393.00
2022-10-21T12:59:36.590Z,100399.00
2022-10-21T13:02:06.222Z,100400.00
2022-10-21T13:04:32.932Z,100400.00
2022-10-21T13:07:25.649Z,100384.00
2022-10-21T13:09:52.375Z,100390.00
2022-10-21T13:12:25.070Z,100375.00
2022-10-21T13:15:02.007Z,100366.00
2022-10-21T13:17:49.444Z,100371.00
2022-10-21T13:20:16.208Z,100368.00
2022-10-21T13:22:44.442Z,100354.00
2022-10-21T13:25:31.918Z,100359.00
2022-10-21T13:28:11.843Z,100359.00
2022-10-21T13:30:59.427Z,100351.00
2022-10-21T13:33:35.756Z,100366.00
2022-10-21T13:36:03.545Z,100365.00
2022-10-21T13:38:35.008Z,100358.00
2022-10-21T13:41:03.911Z,100365.00
2022-10-21T13:43:46.362Z,100372.00
2022-10-21T13:46:37.882Z,100384.00
2022-10-21T13:49:29.360Z,100363.00
2022-10-21T13:51:56.530Z,100373.00
2022-10-21T13:54:23.346Z,100367.00
2022-10-21T13:56:50.326Z,100374.00
2022-10-21T13:59:26.563Z,100373.00
2022-10-21T14:01:55.461Z,100378.00
2022-10-21T14:04:24.776Z,100375.00
2022-10-21T14:06:54.904Z,100371.00
2022-10-21T14:09:39.276Z,100375.00
2022-10-21T14:12:18.317Z,100378.00
2022-10-21T14:14:45.441Z,100374.00
2022-10-21T14:17:20.993Z,100375.00
2022-10-21T14:19:51.146Z,100374.00
2022-10-21T14:22:24.444Z,100372.00
2022-10-21T14:24:57.277Z,100386.00
2022-10-21T14:27:28.120Z,100382.00
2022-10-21T14:29:56.395Z,100389.00
2022-10-21T14:32:25.303Z,100392.00
2022-10-21T14:35:10.537Z,100395.00
2022-10-21T14:37:49.452Z,100394.00
2022-10-21T14:40:32.359Z,100385.00
2022-10-21T14:43:04.467Z,100392.00
2022-10-21T14:45:34.505Z,100384.00
2022-10-21T14:48:11.096Z,100380.00
2022-10-21T14:50:39.836Z,100393.00
2022-10-21T14:53:17.900Z,100396.00
2022-10-21T14:55:47.507Z,100390.00
2022-10-21T14:58:23.314Z,100394.00
2022-10-21T15:00:59.716Z,100408.00
2022-10-21T15:03:45.040Z,100393.00
2022-10-21T15:06:18.537Z,100398.00
2022-10-21T15:09:06.818Z,100401.00
2022-10-21T15:11:42.437Z,100399.00
2022-10-21T15:14:12.303Z,100396.00
2022-10-21T15:16:51.141Z,100395.00
2022-10-21T15:19:45.952Z,100397.00
2022-10-21T15:22:24.956Z,100407.00
2022-10-21T15:24:52.517Z,100390.00
2022-10-21T15:27:37.107Z,100387.00
2022-10-21T15:30:24.565Z,100382.00
2022-10-21T15:32:51.404Z,100387.00
2022-10-21T15:35:20.886Z,100381.00
2022-10-21T15:37:49.640Z,100376.00
2022-10-21T15:40:20.132Z,100380.00
2022-10-21T15:42:47.381Z,100382.00
2022-10-21T15:45:22.212Z,100384.00
2022-10-21T15:47:53.634Z,100373.00
2022-10-21T15:50:25.647Z,100379.00
2022-10-21T15:52:53.169Z,100375.00
2022-10-21T15:55:20.141Z,100370.00
2022-10-21T15:57:46.895Z,100378.00
2022-10-21T16:00:19.478Z,100381.00
2022-10-21T16:02:47.786Z,100382.00
2022-10-21T16:05:15.158Z,100377.00
2022-10-21T16:07:42.304Z,100379.00
2022-10-21T16:10:35.934Z,100382.00
2022-10-21T16:13:13.265Z,100379.00
2022-10-21T16:15:45.980Z,100374.00
2022-10-21T16:18:14.684Z,100374.00
2022-10-21T16:20:42.743Z,100379.00
2022-10-21T16:23:17.358Z,100376.00
2022-10-21T16:25:47.800Z,100375.00
2022-10-21T16:28:14.665Z,100384.00
2022-10-21T16:30:42.894Z,100372.00
2022-10-21T16:33:12.461Z,100371.00
2022-10-21T16:35:40.818Z,100376.00
2022-10-21T16:38:07.692Z,100369.00
2022-10-21T16:40:35.699Z,100368.00
2022-10-21T16:43:03.561Z,100377.00
2022-10-21T16:45:32.229Z,100385.00
2022-10-21T16:48:00.687Z,100381.00
2022-10-21T16:50:45.069Z,100386.00
2022-10-21T16:53:16.697Z,100381.00
2022-10-21T16:55:43.611Z,100386.00
2022-10-21T16:58:10.480Z,100379.00
2022-10-21T17:00:37.388Z,100382.00
2022-10-21T17:03:04.301Z,100374.00
2022-10-21T17:05:31.144Z,100387.00
2022-10-21T17:07:59.883Z,100378.00
2022-10-21T17:10:26.748Z,100383.00
2022-10-21T17:12:58.708Z,100377.00
2022-10-21T17:15:27.183Z,100382.00
2022-10-21T17:17:53.995Z,100383.00
2022-10-21T17:20:20.878Z,100381.00
2022-10-21T17:22:47.666Z,100387.00
2022-10-21T17:25:17.501Z,100381.00
2022-10-21T17:27:47.287Z,100376.00
2022-10-21T17:30:14.111Z,100392.00
2022-10-21T17:35:18.497Z,100386.00
2022-10-21T17:37:49.381Z,100393.00
2022-10-21T17:40:18.602Z,100392.00
2022-10-21T17:42:45.492Z,100393.00
2022-10-21T17:45:13.496Z,100390.00
2022-10-21T17:47:41.047Z,100382.00
2022-10-21T17:50:12.565Z,100386.00
2022-10-21T17:52:47.342Z,100393.00
2022-10-21T17:55:14.239Z,100386.00
2022-10-21T17:57:41.176Z,100387.00
2022-10-21T18:00:08.571Z,100387.00
2022-10-21T18:02:35.744Z,100384.00
2022-10-21T18:05:04.362Z,100381.00
2022-10-21T18:10:57.212Z,100396.00
2022-10-21T18:13:25.344Z,100394.00
2022-10-21T18:15:52.910Z,100394.00
2022-10-21T18:18:21.640Z,100388.00
2022-10-21T18:20:48.929Z,100387.00
2022-10-21T18:23:30.336Z,100388.00
2022-10-21T18:26:01.782Z,100391.00
2022-10-21T18:28:29.490Z,100388.00
2022-10-21T18:30:56.247Z,100388.00
2022-10-21T18:33:23.000Z,100393.00
2022-10-21T18:35:50.150Z,100397.00
2022-10-21T18:38:17.125Z,100395.00
2022-10-21T18:40:56.305Z,100394.00
2022-10-21T18:43:28.968Z,100391.00
2022-10-21T18:45:56.792Z,100398.00
2022-10-21T18:48:23.667Z,100399.00
2022-10-21T18:50:50.481Z,100401.00
2022-10-21T18:53:17.248Z,100389.00
2022-10-21T18:55:44.096Z,100395.00
2022-10-21T18:58:14.471Z,100391.00
2022-10-21T19:00:41.369Z,100392.00
2022-10-21T19:03:08.278Z,100383.00
2022-10-21T19:05:35.135Z,100391.00
2022-10-21T19:08:05.379Z,100392.00
2022-10-21T19:11:16.817Z,100395.00
2022-10-21T19:14:08.421Z,100401.00
2022-10-21T19:16:38.531Z,100397.00
2022-10-21T19:19:05.923Z,100402.00
2022-10-21T19:21:32.712Z,100403.00
2022-10-21T19:24:03.873Z,100413.00
2022-10-21T19:26:32.622Z,100410.00
2022-10-21T19:29:01.346Z,100416.00
2022-10-21T19:31:36.109Z,100413.00
2022-10-21T19:34:03.273Z,100421.00
2022-10-21T19:36:30.737Z,100418.00
2022-10-21T19:38:57.930Z,100417.00
2022-10-21T19:41:25.567Z,100424.00
2022-10-21T19:43:56.370Z,100429.00
2022-10-21T19:46:25.688Z,100429.00
2022-10-21T19:48:53.001Z,100434.00
2022-10-21T19:51:22.148Z,100437.00
2022-10-21T19:53:50.163Z,100441.00
2022-10-21T19:56:23.725Z,100438.00
2022-10-21T19:58:54.085Z,100444.00
2022-10-21T20:01:23.557Z,100451.00
2022-10-21T20:03:50.980Z,100447.00
2022-10-21T20:06:26.542Z,100455.00
2022-10-21T20:08:57.042Z,100447.00
2022-10-21T20:11:24.607Z,100460.00
2022-10-21T20:13:51.610Z,100455.00
2022-10-21T20:16:20.136Z,100457.00
2022-10-21T20:18:49.378Z,100452.00
2022-10-21T20:21:41.919Z,100458.00
2022-10-21T20:24:35.146Z,100457.00
2022-10-21T20:27:03.063Z,100460.00
2022-10-21T20:29:29.921Z,100464.00
2022-10-21T20:31:56.671Z,100472.00
2022-10-21T20:34:24.318Z,100467.00
2022-10-21T20:36:51.477Z,100455.00
2022-10-21T20:39:18.390Z,100460.00
2022-10-21T20:41:45.172Z,100456.00
2022-10-21T20:44:16.441Z,100458.00
2022-10-21T20:46:44.408Z,100448.00
2022-10-21T20:49:11.351Z,100450.00
2022-10-21T20:51:39.973Z,100458.00
2022-10-21T20:54:09.261Z,100449.00
2022-10-21T20:56:38.637Z,100451.00
2022-10-21T20:59:07.076Z,100441.00
2022-10-21T21:01:36.084Z,100455.00
2022-10-21T21:04:06.385Z,100461.00
2022-10-21T21:06:41.861Z,100445.00
2022-10-21T21:09:33.078Z,100446.00
2022-10-21T21:11:55.846Z,100440.00
2022-10-21T21:14:22.918Z,100451.00
2022-10-21T21:16:49.814Z,100446.00
2022-10-21T21:19:16.731Z,100442.00
2022-10-21T21:21:43.501Z,100445.00
2022-10-21T21:24:10.257Z,100443.00
2022-10-21T21:26:38.399Z,100437.00
2022-10-21T21:29:06.860Z,100444.00
2022-10-21T21:31:35.327Z,100439.00
2022-10-21T21:34:02.497Z,100442.00
2022-10-21T21:36:29.645Z,100442.00
2022-10-21T21:39:08.502Z,100448.00
2022-10-21T21:41:49.731Z,100455.00
2022-10-21T21:44:46.219Z,100446.00
2022-10-21T21:47:14.024Z,100450.00
2022-10-21T21:49:40.809Z,100435.00
2022-10-21T21:52:07.695Z,100436.00
2022-10-21T21:54:34.529Z,100446.00
2022-10-21T21:57:27.225Z,100433.00
2022-10-21T21:59:48.180Z,100439.00
2022-10-21T22:02:15.080Z,100438.00
2022-10-21T22:04:41.875Z,100433.00
2022-10-21T22:07:08.681Z,100427.00
2022-10-21T22:09:35.465Z,100437.00
2022-10-21T22:12:02.255Z,100427.00
2022-10-21T22:14:29.150Z,100422.00
2022-10-21T22:16:55.934Z,100435.00
2022-10-21T22:19:22.722Z,100429.00
2022-10-21T22:21:49.531Z,100435.00
2022-10-21T22:24:16.315Z,100433.00
2022-10-21T22:26:43.074Z,100430.00
2022-10-21T22:29:09.877Z,100429.00
2022-10-21T22:31:36.700Z,100424.00
2022-10-21T22:34:05.370Z,100434.00
2022-10-21T22:36:34.772Z,100422.00
2022-10-21T22:39:01.606Z,100443.00
2022-10-21T22:41:28.396Z,100427.00
2022-10-21T22:43:55.268Z,100437.00
2022-10-21T22:46:33.377Z,100434.00
2022-10-21T22:49:00.726Z,100443.00
2022-10-21T22:51:27.563Z,100442.00
2022-10-21T22:53:56.435Z,100441.00
2022-10-21T22:56:27.924Z,100444.00
2022-10-21T22:58:54.820Z,100456.00
2022-10-21T23:01:23.939Z,100448.00
2022-10-21T23:03:51.503Z,100449.00
2022-10-21T23:06:18.320Z,100459.00
2022-10-21T23:08:45.152Z,100449.00
2022-10-21T23:11:36.521Z,100461.00
2022-10-21T23:14:08.851Z,100457.00
2022-10-21T23:16:36.840Z,100456.00
2022-10-21T23:19:04.058Z,100452.00
2022-10-21T23:21:31.060Z,100442.00
2022-10-21T23:23:57.803Z,100455.00
2022-10-21T23:26:27.741Z,100459.00
2022-10-21T23:28:54.624Z,100452.00
2022-10-21T23:31:21.525Z,100454.00
2022-10-21T23:33:48.897Z,100450.00
2022-10-21T23:36:15.667Z,100446.00
2022-10-21T23:38:42.471Z,100455.00
2022-10-21T23:41:09.271Z,100456.00
2022-10-21T23:43:36.130Z,100454.00
2022-10-21T23:46:03.014Z,100452.00
2022-10-21T23:48:29.828Z,100456.00
2022-10-21T23:50:56.600Z,100453.00
2022-10-21T23:53:23.444Z,100453.00
2022-10-21T23:55:50.242Z,100454.00
2022-10-21T23:58:17.040Z,100458.00
